This is the latest recevied weather packets stored in our database for station/object N3LF. If no packets are shown the sender has not sent any weather packets the latest 10 day(s).
| Time | Temp. | Humidity | Pressure | Rain* | Wind** | Luminosity | Snow |
|---|---|---|---|---|---|---|---|
| 1787870467 | 30.56° C | 64% | 1016.7 hPa | 0 mm | - | 136 W/m² | - |
| 1787870162 | 30° C | 66% | 1016.6 hPa | 0 mm | - | 148 W/m² | - |
| 1787869861 | 30° C | 64% | 1016.5 hPa | 0 mm | - | 161 W/m² | - |
| 1787869560 | 30° C | 66% | 1016.4 hPa | 0 mm | - | 174 W/m² | - |
| 1787869255 | 30.56° C | 64% | 1016.6 hPa | 0 mm | - | 187 W/m² | - |
| 1787868955 | 30° C | 67% | 1016.7 hPa | 0 mm | - | 201 W/m² | - |
| 1787868655 | 31.11° C | 65% | 1016.6 hPa | 0 mm | - | 214 W/m² | - |
| 1787868353 | 30° C | 69% | 1016.5 hPa | 0 mm | - | 228 W/m² | - |
| 1787868048 | 30° C | 68% | 1016.6 hPa | 0 mm | - | 243 W/m² | - |
| 1787867744 | 30° C | 69% | 1016.6 hPa | 0 mm | - | 261 W/m² | - |
| 1787867439 | 29.44° C | 68% | 1016.7 hPa | 0 mm | - | 279 W/m² | - |
| 1787867134 | 28.89° C | 69% | 1016.6 hPa | 0 mm | - | 70 W/m² | - |
| 1787866829 | 28.33° C | 69% | 1016.6 hPa | 0 mm | - | 70 W/m² | - |
| 1787866524 | 28.33° C | 71% | 1016.8 hPa | 0 mm | - | 328 W/m² | - |
| 1787866222 | 28.89° C | 70% | 1016.9 hPa | 0 mm | - | 96 W/m² | - |
| 1787865918 | 28.89° C | 69% | 1016.9 hPa | 0 mm | - | 149 W/m² | - |
| 1787865614 | 31.67° C | 62% | 1016.9 hPa | 0 mm | - | 426 W/m² | - |
| 1787865313 | 32.22° C | 59% | 1016.6 hPa | 0 mm | - | 403 W/m² | - |
| 1787865009 | 31.67° C | 59% | 1016.9 hPa | 0 mm | - | 401 W/m² | - |
| 1787864705 | 32.22° C | 57% | 1016.8 hPa | 0 mm | - | 412 W/m² | - |
| 1787864404 | 32.22° C | 58% | 1016.7 hPa | 0 mm | - | 425 W/m² | - |
| 1787864104 | 31.67° C | 58% | 1016.9 hPa | 0 mm | - | 433 W/m² | - |
| 1787863803 | 31.67° C | 56% | 1016.9 hPa | 0 mm | - | 445 W/m² | - |
| 1787863501 | 31.67° C | 56% | 1016.7 hPa | 0 mm | - | 455 W/m² | - |
| 1787863198 | 32.22° C | 59% | 1016.6 hPa | 0 mm | - | 462 W/m² | - |
* Rain latest hour (hover to see other rain measurements)
** Current wind speed in m/s (hover to see current wind gust speed)